createdAt,value
2022-10-15T00:00:12.891Z,12.60
2022-10-15T00:02:39.958Z,12.60
2022-10-15T00:05:08.231Z,12.70
2022-10-15T00:07:34.921Z,12.70
2022-10-15T00:10:01.893Z,12.70
2022-10-15T00:12:30.069Z,12.70
2022-10-15T00:14:56.804Z,12.70
2022-10-15T00:17:24.800Z,12.70
2022-10-15T00:19:51.647Z,12.60
2022-10-15T00:22:19.545Z,12.70
2022-10-15T00:24:46.172Z,12.70
2022-10-15T00:27:14.210Z,12.60
2022-10-15T00:29:41.027Z,12.60
2022-10-15T00:32:12.774Z,12.60
2022-10-15T00:34:43.126Z,12.60
2022-10-15T00:37:10.887Z,12.60
2022-10-15T00:39:41.407Z,12.60
2022-10-15T00:42:11.299Z,12.60
2022-10-15T00:44:49.752Z,12.60
2022-10-15T00:47:27.282Z,12.60
2022-10-15T00:50:02.781Z,12.60
2022-10-15T00:52:44.430Z,12.60
2022-10-15T00:55:19.366Z,12.60
2022-10-15T00:57:49.631Z,12.70
2022-10-15T01:00:17.561Z,12.60
2022-10-15T01:02:45.761Z,12.60
2022-10-15T01:05:14.895Z,12.60
2022-10-15T01:07:41.535Z,12.60
2022-10-15T01:10:10.654Z,12.60
2022-10-15T01:13:14.268Z,12.60
2022-10-15T01:15:51.066Z,12.60
2022-10-15T01:18:25.134Z,12.60
2022-10-15T01:21:19.529Z,12.50
2022-10-15T01:24:04.288Z,12.50
2022-10-15T01:26:46.454Z,12.60
2022-10-15T01:29:22.099Z,12.50
2022-10-15T01:32:15.653Z,12.50
2022-10-15T01:34:57.044Z,12.50
2022-10-15T01:37:52.707Z,12.50
2022-10-15T01:40:31.939Z,12.50
2022-10-15T01:43:00.902Z,12.50
2022-10-15T01:45:40.307Z,12.50
2022-10-15T01:48:12.179Z,12.50
2022-10-15T01:50:46.624Z,12.50
2022-10-15T01:53:19.563Z,12.50
2022-10-15T01:55:48.544Z,12.50
2022-10-15T01:58:17.680Z,12.40
2022-10-15T02:00:44.775Z,12.50
2022-10-15T02:03:11.452Z,12.50
2022-10-15T02:06:08.644Z,12.50
2022-10-15T02:09:02.635Z,12.50
2022-10-15T02:11:33.876Z,12.50
2022-10-15T02:14:06.210Z,12.50
2022-10-15T02:16:45.413Z,12.50
2022-10-15T02:19:18.136Z,12.50
2022-10-15T02:22:03.259Z,12.50
2022-10-15T02:24:55.549Z,12.50
2022-10-15T02:27:27.196Z,12.50
2022-10-15T02:29:56.288Z,12.50
2022-10-15T02:32:45.862Z,12.50
2022-10-15T02:35:12.688Z,12.50
2022-10-15T02:37:44.687Z,12.50
2022-10-15T02:40:12.067Z,12.50
2022-10-15T02:42:38.896Z,12.50
2022-10-15T02:45:06.144Z,12.50
2022-10-15T02:47:32.803Z,12.50
2022-10-15T02:49:59.414Z,12.50
2022-10-15T02:52:26.333Z,12.50
2022-10-15T02:54:53.335Z,12.50
2022-10-15T02:57:19.987Z,12.60
2022-10-15T02:59:46.601Z,12.50
2022-10-15T03:02:16.782Z,12.60
2022-10-15T03:04:45.933Z,12.60
2022-10-15T03:07:13.070Z,12.60
2022-10-15T03:09:41.379Z,12.60
2022-10-15T03:12:09.457Z,12.60
2022-10-15T03:14:38.369Z,12.50
2022-10-15T03:17:09.452Z,12.50
2022-10-15T03:19:38.401Z,12.60
2022-10-15T03:22:07.358Z,12.60
2022-10-15T03:24:34.237Z,12.60
2022-10-15T03:27:02.971Z,12.60
2022-10-15T03:29:31.787Z,12.60
2022-10-15T03:31:58.486Z,12.60
2022-10-15T03:34:25.332Z,12.60
2022-10-15T03:36:51.953Z,12.60
2022-10-15T03:39:18.663Z,12.60
2022-10-15T03:41:45.343Z,12.50
2022-10-15T03:44:12.065Z,12.50
2022-10-15T03:46:38.701Z,12.50
2022-10-15T03:49:05.528Z,12.40
2022-10-15T03:51:32.175Z,12.40
2022-10-15T03:53:59.017Z,12.40
2022-10-15T03:56:25.783Z,12.40
2022-10-15T03:58:52.454Z,12.30
2022-10-15T04:01:19.763Z,12.40
2022-10-15T04:03:46.883Z,12.40
2022-10-15T04:06:13.584Z,12.40
2022-10-15T04:08:41.649Z,12.50
2022-10-15T04:11:08.811Z,12.50
2022-10-15T04:13:35.840Z,12.50
2022-10-15T04:16:05.327Z,12.50
2022-10-15T04:18:32.378Z,12.50
2022-10-15T04:21:00.569Z,12.50
2022-10-15T04:23:27.629Z,12.50
2022-10-15T04:26:01.872Z,12.40
2022-10-15T04:28:30.052Z,12.40
2022-10-15T04:31:01.271Z,12.40
2022-10-15T04:33:29.435Z,12.40
2022-10-15T04:36:11.356Z,12.40
2022-10-15T04:38:39.459Z,12.50
2022-10-15T04:41:09.099Z,12.50
2022-10-15T04:43:37.353Z,12.40
2022-10-15T04:46:05.998Z,12.40
2022-10-15T04:48:37.623Z,12.50
2022-10-15T04:51:14.281Z,12.40
2022-10-15T04:53:42.814Z,12.50
2022-10-15T04:56:14.833Z,12.50
2022-10-15T04:58:43.014Z,12.50
2022-10-15T05:01:12.951Z,12.50
2022-10-15T05:03:45.126Z,12.50
2022-10-15T05:06:15.249Z,12.50
2022-10-15T05:08:41.925Z,12.50
2022-10-15T05:11:11.792Z,12.50
2022-10-15T05:13:39.864Z,12.50
2022-10-15T05:16:16.606Z,12.50
2022-10-15T05:18:46.890Z,12.50
2022-10-15T05:21:14.179Z,12.50
2022-10-15T05:23:41.463Z,12.50
2022-10-15T05:26:13.385Z,12.50
2022-10-15T05:28:41.821Z,12.50
2022-10-15T05:31:16.170Z,12.50
2022-10-15T05:33:46.117Z,12.50
2022-10-15T05:36:15.126Z,12.50
2022-10-15T05:38:44.165Z,12.50
2022-10-15T05:41:10.893Z,12.50
2022-10-15T05:43:41.311Z,12.50
2022-10-15T05:46:09.589Z,12.50
2022-10-15T05:48:37.320Z,12.50
2022-10-15T05:51:07.387Z,12.50
2022-10-15T05:53:35.151Z,12.50
2022-10-15T05:56:03.538Z,12.50
2022-10-15T05:58:37.172Z,12.60
2022-10-15T06:01:09.512Z,12.60
2022-10-15T06:03:38.557Z,12.70
2022-10-15T06:06:05.714Z,12.70
2022-10-15T06:08:35.565Z,12.70
2022-10-15T06:11:06.809Z,12.70
2022-10-15T06:13:42.307Z,12.70
2022-10-15T06:16:09.510Z,12.80
2022-10-15T06:18:37.381Z,12.80
2022-10-15T06:21:05.114Z,12.80
2022-10-15T06:23:32.094Z,12.80
2022-10-15T06:26:05.701Z,12.90
2022-10-15T06:28:33.562Z,12.90
2022-10-15T06:31:00.846Z,12.90
2022-10-15T06:33:28.765Z,12.90
2022-10-15T06:35:55.820Z,12.90
2022-10-15T06:38:22.466Z,13.00
2022-10-15T06:40:49.349Z,13.00
2022-10-15T06:43:15.991Z,13.00
2022-10-15T06:45:42.701Z,13.00
2022-10-15T06:48:09.842Z,13.00
2022-10-15T06:50:38.648Z,13.00
2022-10-15T06:53:06.142Z,13.00
2022-10-15T06:55:33.448Z,13.00
2022-10-15T06:58:00.208Z,13.00
2022-10-15T07:00:27.564Z,13.00
2022-10-15T07:02:54.308Z,12.90
2022-10-15T07:05:21.253Z,13.00
2022-10-15T07:07:55.195Z,12.90
2022-10-15T07:10:23.167Z,12.90
2022-10-15T07:12:49.970Z,12.80
2022-10-15T07:15:17.045Z,12.80
2022-10-15T07:17:51.247Z,12.90
2022-10-15T07:20:21.800Z,13.00
2022-10-15T07:22:50.044Z,13.00
2022-10-15T07:25:16.912Z,13.10
2022-10-15T07:27:44.792Z,13.10
2022-10-15T07:30:11.888Z,13.10
2022-10-15T07:32:39.627Z,13.20
2022-10-15T07:35:07.744Z,13.20
2022-10-15T07:37:35.094Z,13.30
2022-10-15T07:40:03.299Z,13.40
2022-10-15T07:42:29.893Z,13.50
2022-10-15T07:44:59.232Z,13.50
2022-10-15T07:47:26.985Z,13.50
2022-10-15T07:49:54.819Z,13.50
2022-10-15T07:52:21.679Z,13.50
2022-10-15T07:54:51.213Z,13.50
2022-10-15T07:57:20.592Z,13.50
2022-10-15T07:59:47.254Z,13.50
2022-10-15T08:02:18.172Z,13.60
2022-10-15T08:04:45.020Z,13.50
2022-10-15T08:07:11.648Z,13.50
2022-10-15T08:09:38.374Z,13.50
2022-10-15T08:12:05.567Z,13.50
2022-10-15T08:14:33.034Z,13.40
2022-10-15T08:17:00.961Z,13.50
2022-10-15T08:19:27.567Z,13.50
2022-10-15T08:21:54.277Z,13.50
2022-10-15T08:24:20.987Z,13.60
2022-10-15T08:26:47.593Z,13.60
2022-10-15T08:29:14.291Z,13.70
2022-10-15T08:31:42.535Z,13.80
2022-10-15T08:34:09.151Z,13.80
2022-10-15T08:36:36.172Z,13.90
2022-10-15T08:39:03.341Z,13.90
2022-10-15T08:41:35.921Z,13.90
2022-10-15T08:44:02.932Z,14.00
2022-10-15T08:46:37.049Z,14.10
2022-10-15T08:49:06.262Z,14.20
2022-10-15T08:51:44.647Z,14.30
2022-10-15T08:54:19.243Z,14.50
2022-10-15T08:56:53.481Z,14.60
2022-10-15T08:59:43.377Z,14.70
2022-10-15T09:02:38.328Z,14.90
2022-10-15T09:05:42.287Z,15.00
2022-10-15T09:08:39.853Z,15.10
2022-10-15T09:11:15.649Z,15.10
2022-10-15T09:13:44.159Z,15.00
2022-10-15T09:16:20.206Z,15.10
2022-10-15T09:18:49.886Z,15.10
2022-10-15T09:21:16.884Z,15.20
2022-10-15T09:23:44.387Z,15.40
2022-10-15T09:26:20.078Z,15.50
2022-10-15T09:28:58.892Z,15.50
2022-10-15T09:31:45.760Z,15.60
2022-10-15T09:34:23.906Z,15.70
2022-10-15T09:36:59.494Z,15.80
2022-10-15T09:39:52.205Z,15.80
2022-10-15T09:42:36.426Z,15.80
2022-10-15T09:45:07.030Z,15.80
2022-10-15T09:47:35.982Z,15.90
2022-10-15T09:50:08.235Z,16.00
2022-10-15T09:53:05.757Z,16.10
2022-10-15T09:55:42.821Z,16.20
2022-10-15T09:58:26.134Z,16.20
2022-10-15T10:00:57.747Z,16.20
2022-10-15T10:03:27.087Z,16.20
2022-10-15T10:06:14.209Z,16.30
2022-10-15T10:11:22.505Z,16.20
2022-10-15T10:13:49.046Z,16.10
2022-10-15T10:16:17.895Z,16.20
2022-10-15T10:19:00.619Z,16.30
2022-10-15T10:21:34.723Z,16.40
2022-10-15T10:24:25.752Z,16.50
2022-10-15T10:26:52.558Z,16.50
2022-10-15T10:29:35.962Z,16.60
2022-10-15T10:32:21.955Z,16.60
2022-10-15T10:34:52.465Z,16.70
2022-10-15T10:37:19.510Z,16.70
2022-10-15T10:39:51.765Z,16.80
2022-10-15T10:42:18.350Z,16.90
2022-10-15T10:44:44.943Z,16.90
2022-10-15T10:47:15.159Z,16.90
2022-10-15T10:50:02.032Z,16.90
2022-10-15T10:52:36.229Z,16.90
2022-10-15T10:55:20.784Z,17.00
2022-10-15T10:57:56.049Z,17.10
2022-10-15T11:00:48.549Z,17.10
2022-10-15T11:03:21.319Z,17.20
2022-10-15T11:05:53.283Z,17.30
2022-10-15T11:08:36.239Z,17.30
2022-10-15T11:11:25.007Z,17.30
2022-10-15T11:14:20.359Z,17.30
2022-10-15T11:17:14.595Z,17.30
2022-10-15T11:20:12.304Z,17.20
2022-10-15T11:23:05.777Z,17.40
2022-10-15T11:26:00.058Z,17.50
2022-10-15T11:29:06.437Z,17.60
2022-10-15T11:32:02.390Z,17.60
2022-10-15T11:34:42.085Z,17.50
2022-10-15T11:37:40.371Z,17.50
2022-10-15T11:43:03.714Z,17.40
2022-10-15T11:45:55.109Z,17.40
2022-10-15T11:49:18.680Z,17.50
2022-10-15T11:52:16.570Z,17.50
2022-10-15T11:55:06.705Z,17.60
2022-10-15T11:57:36.789Z,17.60
2022-10-15T12:00:24.231Z,17.50
2022-10-15T12:03:00.857Z,17.50
2022-10-15T12:05:42.971Z,17.50
2022-10-15T12:08:12.406Z,17.60
2022-10-15T12:10:54.410Z,17.60
2022-10-15T12:13:36.984Z,17.60
2022-10-15T12:16:20.518Z,17.50
2022-10-15T12:18:53.024Z,17.50
2022-10-15T12:21:44.791Z,17.70
2022-10-15T12:24:50.462Z,17.80
2022-10-15T12:27:20.224Z,17.90
2022-10-15T12:30:00.528Z,17.90
2022-10-15T12:32:29.873Z,17.90
2022-10-15T12:34:59.342Z,18.00
2022-10-15T12:37:32.402Z,18.00
2022-10-15T12:40:02.590Z,18.00
2022-10-15T12:42:36.871Z,17.90
2022-10-15T12:45:07.868Z,17.80
2022-10-15T12:48:06.313Z,17.80
2022-10-15T12:50:36.060Z,17.70
2022-10-15T12:53:05.414Z,17.70
2022-10-15T12:55:40.543Z,17.80
2022-10-15T12:58:33.107Z,17.80
2022-10-15T13:01:13.730Z,17.80
2022-10-15T13:03:48.390Z,17.90
2022-10-15T13:06:23.249Z,17.90
2022-10-15T13:08:49.860Z,18.00
2022-10-15T13:11:33.030Z,18.00
2022-10-15T13:14:21.469Z,18.00
2022-10-15T13:16:48.787Z,17.90
2022-10-15T13:19:32.631Z,17.90
2022-10-15T13:22:04.905Z,17.90
2022-10-15T13:24:41.854Z,17.80
2022-10-15T13:27:24.813Z,17.70
2022-10-15T13:30:02.756Z,17.70
2022-10-15T13:32:33.515Z,17.70
2022-10-15T13:35:02.117Z,17.70
2022-10-15T13:37:31.978Z,17.80
2022-10-15T13:40:01.882Z,17.70
2022-10-15T13:42:33.009Z,17.60
2022-10-15T13:45:00.986Z,17.60
2022-10-15T13:47:33.565Z,17.60
2022-10-15T13:50:18.938Z,17.50
2022-10-15T13:52:58.343Z,17.50
2022-10-15T13:55:30.834Z,17.50
2022-10-15T13:58:04.909Z,17.40
2022-10-15T14:00:35.806Z,17.30
2022-10-15T14:03:23.616Z,17.40
2022-10-15T14:05:52.825Z,17.50
2022-10-15T14:08:26.173Z,17.50
2022-10-15T14:10:56.976Z,17.50
2022-10-15T14:13:24.160Z,17.50
2022-10-15T14:16:21.305Z,17.60
2022-10-15T14:18:57.842Z,17.90
2022-10-15T14:21:26.526Z,18.10
2022-10-15T14:24:02.093Z,18.20
2022-10-15T14:26:28.728Z,18.10
2022-10-15T14:28:55.565Z,18.00
2022-10-15T14:31:37.616Z,17.80
2022-10-15T14:34:05.191Z,17.70
2022-10-15T14:36:40.721Z,17.60
2022-10-15T14:39:41.296Z,17.60
2022-10-15T14:42:27.851Z,17.50
2022-10-15T14:44:54.537Z,17.50
2022-10-15T14:47:24.687Z,17.50
2022-10-15T14:49:55.010Z,17.70
2022-10-15T14:52:22.714Z,18.00
2022-10-15T14:55:16.744Z,18.30
2022-10-15T14:57:45.350Z,18.40
2022-10-15T15:00:24.394Z,18.40
2022-10-15T15:02:51.225Z,18.50
2022-10-15T15:05:21.837Z,18.50
2022-10-15T15:07:48.547Z,18.40
2022-10-15T15:10:15.701Z,18.40
2022-10-15T15:12:48.893Z,18.40
2022-10-15T15:15:17.263Z,18.40
2022-10-15T15:17:43.905Z,18.40
2022-10-15T15:20:11.594Z,18.30
2022-10-15T15:22:39.060Z,18.20
2022-10-15T15:25:36.125Z,18.00
2022-10-15T15:28:03.953Z,17.90
2022-10-15T15:30:32.371Z,17.70
2022-10-15T15:32:59.044Z,17.60
2022-10-15T15:35:42.982Z,17.50
2022-10-15T15:38:12.045Z,17.40
2022-10-15T15:40:40.060Z,17.30
2022-10-15T15:43:06.750Z,17.30
2022-10-15T15:45:36.751Z,17.20
2022-10-15T15:48:07.237Z,17.10
2022-10-15T15:50:36.404Z,17.00
2022-10-15T15:53:15.962Z,16.90
2022-10-15T15:55:46.290Z,16.90
2022-10-15T15:58:14.134Z,16.80
2022-10-15T16:00:43.104Z,16.70
2022-10-15T16:03:14.318Z,16.60
2022-10-15T16:05:42.515Z,16.60
2022-10-15T16:08:10.391Z,16.50
2022-10-15T16:10:40.723Z,16.50
2022-10-15T16:13:08.651Z,16.40
2022-10-15T16:15:38.572Z,16.30
2022-10-15T16:18:08.741Z,16.20
2022-10-15T16:20:48.744Z,16.20
2022-10-15T16:23:16.294Z,16.10
2022-10-15T16:25:43.679Z,16.00
2022-10-15T16:28:10.373Z,16.00
2022-10-15T16:30:37.444Z,15.90
2022-10-15T16:33:04.184Z,15.80
2022-10-15T16:35:30.866Z,15.80
2022-10-15T16:37:57.571Z,15.70
2022-10-15T16:40:24.222Z,15.70
2022-10-15T16:42:50.816Z,15.60
2022-10-15T16:45:17.745Z,15.60
2022-10-15T16:47:44.485Z,15.50
2022-10-15T16:50:11.117Z,15.40
2022-10-15T16:52:39.843Z,15.40
2022-10-15T16:55:08.670Z,15.40
2022-10-15T16:57:39.088Z,15.30
2022-10-15T17:00:07.439Z,15.30
2022-10-15T17:02:34.042Z,15.20
2022-10-15T17:05:00.680Z,15.20
2022-10-15T17:07:27.507Z,15.10
2022-10-15T17:09:54.421Z,15.10
2022-10-15T17:12:21.018Z,15.10
2022-10-15T17:14:51.038Z,15.00
2022-10-15T17:17:17.781Z,15.00
2022-10-15T17:19:44.484Z,14.90
2022-10-15T17:22:11.144Z,14.90
2022-10-15T17:24:37.841Z,14.80
2022-10-15T17:27:05.299Z,14.80
2022-10-15T17:29:33.294Z,14.80
2022-10-15T17:32:01.585Z,14.80
2022-10-15T17:34:28.221Z,14.70
2022-10-15T17:36:54.955Z,14.70
2022-10-15T17:39:21.566Z,14.70
2022-10-15T17:41:49.689Z,14.60
2022-10-15T17:44:16.367Z,14.60
2022-10-15T17:46:43.037Z,14.50
2022-10-15T17:49:11.071Z,14.50
2022-10-15T17:51:39.014Z,14.50
2022-10-15T17:54:10.716Z,14.40
2022-10-15T17:56:40.534Z,14.40
2022-10-15T17:59:12.754Z,14.40
2022-10-15T18:01:57.890Z,14.40
2022-10-15T18:04:28.215Z,14.30
2022-10-15T18:06:55.639Z,14.30
2022-10-15T18:09:23.915Z,14.30
2022-10-15T18:11:50.667Z,14.20
2022-10-15T18:14:18.507Z,14.20
2022-10-15T18:16:47.234Z,14.20
2022-10-15T18:19:15.151Z,14.20
2022-10-15T18:21:48.542Z,14.20
2022-10-15T18:24:19.953Z,14.20
2022-10-15T18:26:49.726Z,14.20
2022-10-15T18:29:16.716Z,14.10
2022-10-15T18:31:44.498Z,14.10
2022-10-15T18:34:12.610Z,14.10
2022-10-15T18:36:40.217Z,14.10
2022-10-15T18:39:09.820Z,14.10
2022-10-15T18:41:37.939Z,14.10
2022-10-15T18:44:11.777Z,14.10
2022-10-15T18:46:39.911Z,14.10
2022-10-15T18:49:09.158Z,14.10
2022-10-15T18:51:37.757Z,14.00
2022-10-15T18:54:06.183Z,14.00
2022-10-15T18:56:36.635Z,14.00
2022-10-15T18:59:04.707Z,14.00
2022-10-15T19:01:33.740Z,14.10
2022-10-15T19:04:14.118Z,14.10
2022-10-15T19:06:44.121Z,14.10
2022-10-15T19:09:15.977Z,14.10
2022-10-15T19:11:45.878Z,14.10
2022-10-15T19:14:13.357Z,14.10
2022-10-15T19:16:40.034Z,14.00
2022-10-15T19:19:06.648Z,14.00
2022-10-15T19:21:34.365Z,14.00
2022-10-15T19:24:04.840Z,14.00
2022-10-15T19:26:34.928Z,14.00
2022-10-15T19:29:05.264Z,14.00
2022-10-15T19:31:44.722Z,14.00
2022-10-15T19:34:12.090Z,14.00
2022-10-15T19:36:41.830Z,14.00
2022-10-15T19:39:14.376Z,14.00
2022-10-15T19:41:43.780Z,14.10
2022-10-15T19:44:11.697Z,14.10
2022-10-15T19:46:39.287Z,14.20
2022-10-15T19:49:08.798Z,14.20
2022-10-15T19:51:36.845Z,14.20
2022-10-15T19:54:04.073Z,14.30
2022-10-15T19:56:32.926Z,14.30
2022-10-15T19:59:03.085Z,14.30
2022-10-15T20:01:30.918Z,14.30
2022-10-15T20:04:01.639Z,14.30
2022-10-15T20:06:33.536Z,14.30
2022-10-15T20:09:00.153Z,14.40
2022-10-15T20:11:28.114Z,14.30
2022-10-15T20:13:54.740Z,14.40
2022-10-15T20:16:23.298Z,14.40
2022-10-15T20:18:52.155Z,14.40
2022-10-15T20:21:18.842Z,14.40
2022-10-15T20:23:45.526Z,14.40
2022-10-15T20:26:15.194Z,14.40
2022-10-15T20:28:44.618Z,14.40
2022-10-15T20:31:16.794Z,14.40
2022-10-15T20:33:44.734Z,14.40
2022-10-15T20:36:18.857Z,14.40
2022-10-15T20:38:48.803Z,14.40
2022-10-15T20:41:17.547Z,14.40
2022-10-15T20:43:45.437Z,14.40
2022-10-15T20:46:14.167Z,14.40
2022-10-15T20:48:41.475Z,14.30
2022-10-15T20:51:11.021Z,14.30
2022-10-15T20:53:38.150Z,14.30
2022-10-15T20:56:05.046Z,14.20
2022-10-15T20:58:31.909Z,14.20
2022-10-15T21:00:58.610Z,14.20
2022-10-15T21:03:25.871Z,14.20
2022-10-15T21:05:52.801Z,14.10
2022-10-15T21:08:19.462Z,14.10
2022-10-15T21:10:46.156Z,14.10
2022-10-15T21:13:12.772Z,14.10
2022-10-15T21:15:39.410Z,14.00
2022-10-15T21:18:07.159Z,14.00
2022-10-15T21:20:33.781Z,14.00
2022-10-15T21:23:01.512Z,14.10
2022-10-15T21:25:28.216Z,14.00
2022-10-15T21:27:56.151Z,14.00
2022-10-15T21:30:22.832Z,13.90
2022-10-15T21:32:52.948Z,13.90
2022-10-15T21:35:19.564Z,13.90
2022-10-15T21:37:46.201Z,13.90
2022-10-15T21:40:12.870Z,13.90
2022-10-15T21:42:39.518Z,13.90
2022-10-15T21:45:06.558Z,13.80
2022-10-15T21:47:33.293Z,13.80
2022-10-15T21:49:59.908Z,13.80
2022-10-15T21:52:26.525Z,13.80
2022-10-15T21:54:53.160Z,13.80
2022-10-15T21:57:19.759Z,13.80
2022-10-15T21:59:46.421Z,13.80
2022-10-15T22:02:13.280Z,13.80
2022-10-15T22:04:40.113Z,13.90
2022-10-15T22:07:06.714Z,13.80
2022-10-15T22:09:33.347Z,13.80
2022-10-15T22:12:00.040Z,13.90
2022-10-15T22:14:26.678Z,13.90
2022-10-15T22:16:53.293Z,13.80
2022-10-15T22:19:19.916Z,13.80
2022-10-15T22:21:46.552Z,13.80
2022-10-15T22:24:15.852Z,13.90
2022-10-15T22:26:49.388Z,13.80
2022-10-15T22:29:24.843Z,13.80
2022-10-15T22:31:52.670Z,13.90
2022-10-15T22:34:21.797Z,13.80
2022-10-15T22:36:48.699Z,13.80
2022-10-15T22:39:16.974Z,13.80
2022-10-15T22:41:45.203Z,13.80
2022-10-15T22:44:18.813Z,13.80
2022-10-15T22:46:56.248Z,13.80
2022-10-15T22:49:24.126Z,13.70
2022-10-15T22:51:52.278Z,13.80
2022-10-15T22:54:23.890Z,13.70
2022-10-15T22:56:56.271Z,13.70
2022-10-15T22:59:24.129Z,13.70
2022-10-15T23:01:50.741Z,13.70
2022-10-15T23:04:17.759Z,13.60
2022-10-15T23:06:44.369Z,13.60
2022-10-15T23:09:11.909Z,13.60
2022-10-15T23:11:40.052Z,13.60
2022-10-15T23:14:11.103Z,13.60
2022-10-15T23:16:40.386Z,13.60
2022-10-15T23:19:12.258Z,13.60
2022-10-15T23:21:55.504Z,13.50
2022-10-15T23:24:24.865Z,13.60
2022-10-15T23:26:52.196Z,13.50
2022-10-15T23:29:21.396Z,13.60
2022-10-15T23:31:48.777Z,13.60
2022-10-15T23:34:18.454Z,13.60
2022-10-15T23:36:45.377Z,13.60
2022-10-15T23:39:19.732Z,13.60
2022-10-15T23:41:46.400Z,13.60
2022-10-15T23:44:13.400Z,13.70
2022-10-15T23:46:40.515Z,13.70
2022-10-15T23:49:07.280Z,13.70
2022-10-15T23:51:33.978Z,13.70
2022-10-15T23:54:01.618Z,13.80
2022-10-15T23:56:29.832Z,13.80
2022-10-15T23:58:59.394Z,13.80
